Rio San Juan, Dominican Republic
Current Conditions -  °F | °C
As of 12:00 PM on Friday 21 Nov 2014 (Local Time) from MDPP Reporting Station
Scattered Clouds Scattered Clouds  
Wind Chill: 84°   Ceiling: Unl
Heat Index: 90°   Visibility: 6mi
Dew Point: 72°   Wind: 12mph
Humidity: 66%   Direction: 90°E
Pressure: 30.03"   Gusts: NA
Location:  19.65°N, 70.08°W
Report Text: MDPP 211600Z 09010KT 9999 SCT022 29/22 Q1017
Loading
Personal Weather Stations






























Interactive Weather Map New forecast layout! Learn more

10-Day Weather Forecast

Advertisements
Track Severe Weather on mobile